Hinckley, MN

5:30 AM CST on December 11, 2019 (GMT -0600)
Hinckley

Weather History for K04W - October, 2019

Change the Weather History Date:

Monday, October 14, 2019

  Actual Average (WUND) Record (WUND)
Temperature  
Mean Temperature 40 °F -  
Max Temperature 50 °F - - (-1)
Min Temperature 30 °F - - (-1)
Degree Days  
Heating Degree Days 25    
Moisture  
Dew Point 32 °F    
Average Humidity 84    
Maximum Humidity 100    
Minimum Humidity 54    
Precipitation  
Precipitation 0.00 in - - ()
Sea Level Pressure  
Sea Level Pressure 29.94 in    
Wind  
Wind Speed 4 mph (SW)    
Max Wind Speed 13 mph    
Max Gust Speed 18 mph    
Visibility 10 miles    
Events      
Averages and records for this station are not official NWS values.
T = Trace of Precipitation, MM = Missing Value Source: NWS Daily Summary

Daily Weather History Graph

Daily Weather History Graph

Search for Another Location

Airport or City:

Astronomy

Oct. 14, 2019 Rise Set
Actual Time 7:26 AM CDT 6:27 PM CDT
Civil Twilight 6:56 AM CDT 6:57 PM CDT
Nautical Twilight 6:22 AM CDT 7:32 PM CDT
Astronomical Twilight 5:47 AM CDT 8:06 PM CDT
Moon 7:17 PM CDT (10/14) 7:58 AM CDT (10/14)
Length of Visible Light 12h 00m
Length of Day
11h 00m
Full, 99% of the Moon is Illuminated
Oct 14
Full
Oct 21
Last Quarter
Oct 27
New
Nov 4
First Quarter
Nov 12
Full

Hourly Weather History & Observations

Time (CDT) Temp. Windchill Dew Point Humidity Pressure Visibility Wind Dir Wind Speed Gust Speed Precip Events Conditions
12:18 AM 33.8 °F 29.6 °F 32.0 °F 93% 29.90 in 10.0 mi West 4.6 mph - N/A   Mostly Cloudy
12:37 AM 32.0 °F 28.7 °F 32.0 °F 100% 29.90 in 10.0 mi West 3.5 mph - N/A   Scattered Clouds
12:56 AM 32.0 °F 28.7 °F 32.0 °F 100% 29.90 in 10.0 mi West 3.5 mph - N/A   Clear
1:15 AM 32.0 °F 28.7 °F 32.0 °F 100% 29.90 in 10.0 mi West 3.5 mph - N/A   Clear
1:35 AM 32.0 °F 28.7 °F 32.0 °F 100% 29.91 in 10.0 mi West 3.5 mph - N/A   Clear
1:39 AM 32.0 °F 26.4 °F 32.0 °F 100% 29.91 in 10.0 mi West 5.8 mph - N/A   Clear
1:58 AM 32.0 °F 28.7 °F 32.0 °F 100% 29.91 in 10.0 mi West 3.5 mph - N/A   Clear
2:15 AM 32.0 °F 28.7 °F 30.2 °F 93% 29.91 in 10.0 mi WSW 3.5 mph - N/A   Clear
2:35 AM 30.2 °F - 30.2 °F 100% 29.91 in 10.0 mi Calm Calm - N/A   Clear
2:36 AM 30.2 °F - 30.2 °F 100% 29.91 in 10.0 mi Calm Calm - N/A   Clear
2:55 AM 30.2 °F - 30.2 °F 100% 29.92 in 10.0 mi Calm Calm - N/A   Clear
2:56 AM 30.2 °F - 30.2 °F 100% 29.92 in 10.0 mi Calm Calm - N/A   Clear
3:18 AM 30.2 °F 23.4 °F 30.2 °F 100% 29.92 in 10.0 mi West 6.9 mph - N/A   Clear
3:36 AM 32.0 °F 28.7 °F 30.2 °F 93% 29.92 in 10.0 mi West 3.5 mph - N/A   Clear
3:56 AM 30.2 °F - 30.2 °F 100% 29.92 in 10.0 mi Calm Calm - N/A   Clear
4:15 AM 30.2 °F - 30.2 °F 100% 29.92 in 10.0 mi Calm Calm - N/A   Mostly Cloudy
4:16 AM 30.2 °F - 30.2 °F 100% 29.92 in 10.0 mi Calm Calm - N/A   Mostly Cloudy
4:35 AM 30.2 °F 26.7 °F 30.2 °F 100% 29.93 in 10.0 mi SW 3.5 mph - N/A   Overcast
4:39 AM 30.2 °F 26.7 °F 30.2 °F 100% 29.93 in 10.0 mi SW 3.5 mph - N/A   Overcast
4:58 AM 30.2 °F - 30.2 °F 100% 29.93 in 10.0 mi Calm Calm - N/A   Mostly Cloudy
5:15 AM 30.2 °F - 30.2 °F 100% 29.94 in 10.0 mi Calm Calm - N/A   Overcast
5:35 AM 32.0 °F - 32.0 °F 100% 29.94 in 10.0 mi Calm Calm - N/A   Overcast
5:36 AM 32.0 °F - 32.0 °F 100% 29.94 in 10.0 mi Calm Calm - N/A   Overcast
5:55 AM 32.0 °F - 32.0 °F 100% 29.95 in 10.0 mi Calm Calm - N/A   Overcast
5:56 AM 32.0 °F - 32.0 °F 100% 29.95 in 10.0 mi Calm Calm - N/A   Overcast
6:19 AM 32.0 °F - 32.0 °F 100% 29.95 in 10.0 mi Calm Calm - N/A   Overcast
6:36 AM 32.0 °F - 32.0 °F 100% 29.96 in 10.0 mi Calm Calm - N/A   Overcast
6:55 AM 32.0 °F 28.7 °F 32.0 °F 100% 29.96 in 10.0 mi SW 3.5 mph - N/A   Overcast
6:56 AM 32.0 °F 28.7 °F 32.0 °F 100% 29.96 in 10.0 mi SW 3.5 mph - N/A   Overcast
7:15 AM 32.0 °F - 32.0 °F 100% 29.96 in 10.0 mi Calm Calm - N/A   Overcast
7:16 AM 32.0 °F 28.7 °F 32.0 °F 100% 29.96 in 10.0 mi SW 3.5 mph - N/A   Overcast
7:35 AM 32.0 °F 28.7 °F 32.0 °F 100% 29.96 in 10.0 mi SW 3.5 mph - N/A   Overcast
7:40 AM 32.0 °F 27.5 °F 32.0 °F 100% 29.96 in 10.0 mi WSW 4.6 mph - N/A   Overcast
8:16 AM 32.0 °F - 32.0 °F 100% 29.96 in 10.0 mi Calm Calm - N/A   Scattered Clouds
8:35 AM 33.8 °F 28.6 °F 32.0 °F 93% 29.97 in 10.0 mi SW 5.8 mph - N/A   Scattered Clouds
8:36 AM 33.8 °F 28.6 °F 32.0 °F 93% 29.97 in 10.0 mi SW 5.8 mph - N/A   Scattered Clouds
8:55 AM 35.6 °F 28.6 °F 33.8 °F 93% 29.98 in 10.0 mi SW 9.2 mph - N/A   Scattered Clouds
9:18 AM 37.4 °F 30.3 °F 33.8 °F 87% 29.98 in 10.0 mi SW 10.4 mph - N/A   Clear
9:36 AM 37.4 °F 30.3 °F 33.8 °F 87% 29.98 in 10.0 mi WSW 10.4 mph - N/A   Clear
9:55 AM 39.2 °F 33.6 °F 33.8 °F 81% 29.98 in 10.0 mi WSW 8.1 mph - N/A   Clear
9:56 AM 39.2 °F 33.6 °F 33.8 °F 81% 29.98 in 10.0 mi WSW 8.1 mph - N/A   Clear
10:15 AM 41.0 °F 36.4 °F 35.6 °F 81% 29.98 in 10.0 mi WSW 6.9 mph - N/A   Scattered Clouds
10:16 AM 41.0 °F 36.4 °F 35.6 °F 81% 29.98 in 10.0 mi WSW 6.9 mph - N/A   Scattered Clouds
10:35 AM 41.0 °F 36.4 °F 33.8 °F 76% 29.98 in 10.0 mi WSW 6.9 mph - N/A   Scattered Clouds
10:39 AM 41.0 °F 37.1 °F 33.8 °F 76% 29.98 in 10.0 mi SW 5.8 mph - N/A   Scattered Clouds
10:58 AM 42.8 °F 40.1 °F 32.0 °F 66% 29.98 in 10.0 mi SW 4.6 mph - N/A   Clear
11:15 AM 42.8 °F 38.6 °F 32.0 °F 66% 29.98 in 10.0 mi SSW 6.9 mph - N/A   Clear
11:35 AM 44.6 °F 40.7 °F 32.0 °F 61% 29.98 in 10.0 mi WSW 6.9 mph - N/A   Clear
11:36 AM 44.6 °F 40.2 °F 32.0 °F 61% 29.98 in 10.0 mi WSW 8.1 mph - N/A   Clear
11:55 AM 44.6 °F 40.7 °F 32.0 °F 61% 29.97 in 10.0 mi WSW 6.9 mph - N/A   Scattered Clouds
12:18 PM 44.6 °F 39.7 °F 32.0 °F 61% 29.97 in 10.0 mi West 9.2 mph - N/A   Scattered Clouds
12:37 PM 44.6 °F 42.2 °F 32.0 °F 61% 29.97 in 10.0 mi SW 4.6 mph - N/A   Scattered Clouds
12:56 PM 46.4 °F 41.9 °F 32.0 °F 57% 29.97 in 10.0 mi SSW 9.2 mph - N/A   Scattered Clouds
1:15 PM 44.6 °F 42.2 °F 32.0 °F 61% 29.96 in 10.0 mi SW 4.6 mph - N/A   Scattered Clouds
1:35 PM 46.4 °F 42.9 °F 32.0 °F 57% 29.95 in 10.0 mi SW 6.9 mph - N/A   Clear
1:40 PM 48.2 °F - 32.0 °F 54% 29.95 in 10.0 mi WSW 9.2 mph - N/A   Clear
1:58 PM 48.2 °F - 32.0 °F 54% 29.94 in 10.0 mi South 5.8 mph - N/A   Clear
2:15 PM 48.2 °F - 32.0 °F 54% 29.94 in 10.0 mi WSW 8.1 mph - N/A   Clear
2:35 PM 48.2 °F - 32.0 °F 54% 29.94 in 10.0 mi SSW 8.1 mph - N/A   Scattered Clouds
2:36 PM 48.2 °F - 32.0 °F 54% 29.94 in 10.0 mi SW 8.1 mph - N/A   Scattered Clouds
2:55 PM 48.2 °F - 32.0 °F 54% 29.93 in 10.0 mi South 10.4 mph - N/A   Scattered Clouds
2:56 PM 48.2 °F - 32.0 °F 54% 29.93 in 10.0 mi South 12.7 mph - N/A   Scattered Clouds
3:18 PM 48.2 °F - 32.0 °F 54% 29.93 in 10.0 mi South 12.7 mph 18.4 mph N/A   Mostly Cloudy
3:36 PM 48.2 °F - 32.0 °F 54% 29.93 in 10.0 mi SSW 5.8 mph - N/A   Scattered Clouds
3:56 PM 48.2 °F - 33.8 °F 58% 29.92 in 10.0 mi SW 4.6 mph - N/A   Clear
4:15 PM 48.2 °F - 32.0 °F 54% 29.92 in 10.0 mi South 8.1 mph - N/A   Clear
4:35 PM 46.4 °F 42.9 °F 33.8 °F 62% 29.92 in 10.0 mi SSW 6.9 mph - N/A   Scattered Clouds
4:39 PM 46.4 °F 42.9 °F 33.8 °F 62% 29.92 in 10.0 mi SSW 6.9 mph - N/A   Scattered Clouds
4:58 PM 50.0 °F - 33.8 °F 54% 29.92 in 10.0 mi South 6.9 mph - N/A   Clear
5:15 PM 48.2 °F - 33.8 °F 58% 29.92 in 10.0 mi South 5.8 mph - N/A   Scattered Clouds
5:35 PM 46.4 °F 42.9 °F 33.8 °F 62% 29.92 in 10.0 mi South 6.9 mph - N/A   Scattered Clouds
5:55 PM 44.6 °F 42.2 °F 33.8 °F 66% 29.92 in 10.0 mi South 4.6 mph - N/A   Scattered Clouds
5:56 PM 44.6 °F 41.4 °F 33.8 °F 66% 29.92 in 10.0 mi South 5.8 mph - N/A   Scattered Clouds
6:18 PM 42.8 °F - 33.8 °F 70% 29.92 in 10.0 mi Calm Calm - N/A   Clear
6:36 PM 42.8 °F - 33.8 °F 70% 29.92 in 10.0 mi Calm Calm - N/A   Clear
6:56 PM 37.4 °F - 33.8 °F 87% 29.92 in 10.0 mi Calm Calm - N/A   Clear
7:15 PM 37.4 °F - 33.8 °F 87% 29.92 in 10.0 mi Calm Calm - N/A   Clear
7:16 PM 37.4 °F - 33.8 °F 87% 29.92 in 10.0 mi Calm Calm - N/A   Clear
7:35 PM 35.6 °F - 33.8 °F 93% 29.92 in 10.0 mi Calm Calm - N/A   Clear
7:39 PM 35.6 °F - 33.8 °F 93% 29.92 in 10.0 mi Calm Calm - N/A   Clear
8:16 PM 33.8 °F - 33.8 °F 100% 29.93 in 10.0 mi Calm Calm - N/A   Clear
8:35 PM 35.6 °F - 33.8 °F 93% 29.93 in 10.0 mi Calm Calm - N/A   Clear
8:36 PM 35.6 °F - 33.8 °F 93% 29.93 in 10.0 mi Calm Calm - N/A   Clear
8:59 PM 33.8 °F - 33.8 °F 100% 29.93 in 10.0 mi Calm Calm - N/A   Clear
9:16 PM 33.8 °F - 32.0 °F 93% 29.93 in 10.0 mi Calm Calm - N/A   Clear
9:35 PM 33.8 °F - 33.8 °F 100% 29.94 in 10.0 mi Calm Calm - N/A   Clear
9:36 PM 33.8 °F - 33.8 °F 100% 29.94 in 10.0 mi Calm Calm - N/A   Clear
9:55 PM 33.8 °F - 33.8 °F 100% 29.95 in 10.0 mi Calm Calm - N/A   Clear
9:56 PM 33.8 °F - 33.8 °F 100% 29.95 in 10.0 mi Calm Calm - N/A   Clear
10:18 PM 33.8 °F - 32.0 °F 93% 29.94 in 10.0 mi Calm Calm - N/A   Clear
10:36 PM 32.0 °F - 32.0 °F 100% 29.94 in 10.0 mi Calm Calm - N/A   Clear
10:56 PM 32.0 °F - 32.0 °F 100% 29.94 in 10.0 mi Calm Calm - N/A   Clear
11:15 PM 32.0 °F - 32.0 °F 100% 29.94 in 10.0 mi Calm Calm - N/A   Clear
11:20 PM 32.0 °F - 32.0 °F 100% 29.93 in 10.0 mi Calm Calm - N/A   Clear
11:37 PM 32.0 °F - 32.0 °F 100% 29.93 in 10.0 mi Calm Calm - N/A   Clear
11:55 PM 32.0 °F - 32.0 °F 100% 29.93 in 10.0 mi Calm Calm - N/A   Clear